sensor_id;sensor_type;location;lat;lon;timestamp;temperature;humidity
50955;DHT22;36966;48.064;-0.792;2024-01-30T00:01:09;17.80;54.80
50955;DHT22;36966;48.064;-0.792;2024-01-30T00:03:28;17.90;54.80
50955;DHT22;36966;48.064;-0.792;2024-01-30T00:05:49;17.80;54.80
50955;DHT22;36966;48.064;-0.792;2024-01-30T00:08:08;17.80;54.90
50955;DHT22;36966;48.064;-0.792;2024-01-30T00:10:27;17.80;54.80
50955;DHT22;36966;48.064;-0.792;2024-01-30T00:12:46;17.80;54.90
50955;DHT22;36966;48.064;-0.792;2024-01-30T00:15:06;17.80;54.80
50955;DHT22;36966;48.064;-0.792;2024-01-30T00:17:28;17.70;54.80
50955;DHT22;36966;48.064;-0.792;2024-01-30T00:19:47;17.70;54.80
50955;DHT22;36966;48.064;-0.792;2024-01-30T00:22:06;17.70;54.80
50955;DHT22;36966;48.064;-0.792;2024-01-30T00:24:26;17.70;54.90
50955;DHT22;36966;48.064;-0.792;2024-01-30T00:26:45;17.70;54.80
50955;DHT22;36966;48.064;-0.792;2024-01-30T00:29:05;17.70;54.90
50955;DHT22;36966;48.064;-0.792;2024-01-30T00:31:24;17.70;54.90
50955;DHT22;36966;48.064;-0.792;2024-01-30T00:33:43;17.70;54.90
50955;DHT22;36966;48.064;-0.792;2024-01-30T00:36:03;17.70;54.80
50955;DHT22;36966;48.064;-0.792;2024-01-30T00:38:22;17.70;54.80
50955;DHT22;36966;48.064;-0.792;2024-01-30T00:40:42;17.70;54.80
50955;DHT22;36966;48.064;-0.792;2024-01-30T00:43:01;17.70;54.80
50955;DHT22;36966;48.064;-0.792;2024-01-30T00:45:20;17.70;54.80
50955;DHT22;36966;48.064;-0.792;2024-01-30T00:47:39;17.70;54.80
50955;DHT22;36966;48.064;-0.792;2024-01-30T00:49:59;17.70;54.80
50955;DHT22;36966;48.064;-0.792;2024-01-30T00:52:18;17.70;54.80
50955;DHT22;36966;48.064;-0.792;2024-01-30T00:54:37;17.70;54.90
50955;DHT22;36966;48.064;-0.792;2024-01-30T00:56:56;17.60;54.70
50955;DHT22;36966;48.064;-0.792;2024-01-30T00:59:16;17.60;54.80
50955;DHT22;36966;48.064;-0.792;2024-01-30T01:01:35;17.60;54.80
50955;DHT22;36966;48.064;-0.792;2024-01-30T01:03:55;17.60;54.70
50955;DHT22;36966;48.064;-0.792;2024-01-30T01:06:14;17.60;54.70
50955;DHT22;36966;48.064;-0.792;2024-01-30T01:08:33;17.60;54.70
50955;DHT22;36966;48.064;-0.792;2024-01-30T01:10:53;17.60;54.80
50955;DHT22;36966;48.064;-0.792;2024-01-30T01:13:13;17.60;54.80
50955;DHT22;36966;48.064;-0.792;2024-01-30T01:15:32;17.50;54.80
50955;DHT22;36966;48.064;-0.792;2024-01-30T01:17:51;17.60;54.90
50955;DHT22;36966;48.064;-0.792;2024-01-30T01:20:11;17.50;54.90
50955;DHT22;36966;48.064;-0.792;2024-01-30T01:22:30;17.60;54.80
50955;DHT22;36966;48.064;-0.792;2024-01-30T01:24:50;17.50;54.80
50955;DHT22;36966;48.064;-0.792;2024-01-30T01:27:09;17.50;54.70
50955;DHT22;36966;48.064;-0.792;2024-01-30T01:29:28;17.50;54.80
50955;DHT22;36966;48.064;-0.792;2024-01-30T01:31:47;17.50;54.80
50955;DHT22;36966;48.064;-0.792;2024-01-30T01:34:07;17.50;54.80
50955;DHT22;36966;48.064;-0.792;2024-01-30T01:36:26;17.50;54.90
50955;DHT22;36966;48.064;-0.792;2024-01-30T01:38:45;17.50;54.80
50955;DHT22;36966;48.064;-0.792;2024-01-30T01:41:05;17.50;54.90
50955;DHT22;36966;48.064;-0.792;2024-01-30T01:43:24;17.50;54.90
50955;DHT22;36966;48.064;-0.792;2024-01-30T01:45:43;17.50;54.90
50955;DHT22;36966;48.064;-0.792;2024-01-30T01:48:02;17.50;54.80
50955;DHT22;36966;48.064;-0.792;2024-01-30T01:50:21;17.50;54.80
50955;DHT22;36966;48.064;-0.792;2024-01-30T01:52:41;17.50;54.90
50955;DHT22;36966;48.064;-0.792;2024-01-30T01:55:00;17.40;54.90
50955;DHT22;36966;48.064;-0.792;2024-01-30T01:57:20;17.50;54.90
50955;DHT22;36966;48.064;-0.792;2024-01-30T01:59:39;17.50;54.80
50955;DHT22;36966;48.064;-0.792;2024-01-30T02:01:58;17.50;54.70
50955;DHT22;36966;48.064;-0.792;2024-01-30T02:04:18;17.50;54.70
50955;DHT22;36966;48.064;-0.792;2024-01-30T02:06:37;17.40;54.70
50955;DHT22;36966;48.064;-0.792;2024-01-30T02:08:57;17.40;54.80
50955;DHT22;36966;48.064;-0.792;2024-01-30T02:11:16;17.50;54.90
50955;DHT22;36966;48.064;-0.792;2024-01-30T02:13:36;17.50;54.70
50955;DHT22;36966;48.064;-0.792;2024-01-30T02:15:55;17.40;54.90
50955;DHT22;36966;48.064;-0.792;2024-01-30T02:18:14;17.40;54.70
50955;DHT22;36966;48.064;-0.792;2024-01-30T02:20:34;17.40;54.80
50955;DHT22;36966;48.064;-0.792;2024-01-30T02:22:53;17.40;54.60
50955;DHT22;36966;48.064;-0.792;2024-01-30T02:25:13;17.40;54.60
50955;DHT22;36966;48.064;-0.792;2024-01-30T02:27:32;17.40;54.90
50955;DHT22;36966;48.064;-0.792;2024-01-30T02:29:51;17.40;54.90
50955;DHT22;36966;48.064;-0.792;2024-01-30T02:32:11;17.40;55.00
50955;DHT22;36966;48.064;-0.792;2024-01-30T02:34:30;17.40;54.70
50955;DHT22;36966;48.064;-0.792;2024-01-30T02:36:49;17.40;54.80
50955;DHT22;36966;48.064;-0.792;2024-01-30T02:39:09;17.40;54.80
50955;DHT22;36966;48.064;-0.792;2024-01-30T02:41:28;17.40;54.90
50955;DHT22;36966;48.064;-0.792;2024-01-30T02:43:47;17.40;54.90
50955;DHT22;36966;48.064;-0.792;2024-01-30T02:46:07;17.40;55.00
50955;DHT22;36966;48.064;-0.792;2024-01-30T02:48:26;17.40;55.00
50955;DHT22;36966;48.064;-0.792;2024-01-30T02:50:45;17.40;55.00
50955;DHT22;36966;48.064;-0.792;2024-01-30T02:53:05;17.40;54.90
50955;DHT22;36966;48.064;-0.792;2024-01-30T02:55:25;17.40;54.80
50955;DHT22;36966;48.064;-0.792;2024-01-30T02:57:44;17.40;54.90
50955;DHT22;36966;48.064;-0.792;2024-01-30T03:00:04;17.40;54.70
50955;DHT22;36966;48.064;-0.792;2024-01-30T03:02:25;17.40;54.70
50955;DHT22;36966;48.064;-0.792;2024-01-30T03:04:45;17.40;54.90
50955;DHT22;36966;48.064;-0.792;2024-01-30T03:07:04;17.40;54.80
50955;DHT22;36966;48.064;-0.792;2024-01-30T03:09:23;17.40;54.80
50955;DHT22;36966;48.064;-0.792;2024-01-30T03:11:43;17.30;54.70
50955;DHT22;36966;48.064;-0.792;2024-01-30T03:14:02;17.40;54.90
50955;DHT22;36966;48.064;-0.792;2024-01-30T03:16:23;17.40;54.80
50955;DHT22;36966;48.064;-0.792;2024-01-30T03:18:42;17.40;54.90
50955;DHT22;36966;48.064;-0.792;2024-01-30T03:21:01;17.40;54.90
50955;DHT22;36966;48.064;-0.792;2024-01-30T03:23:20;17.40;54.90
50955;DHT22;36966;48.064;-0.792;2024-01-30T03:25:40;17.40;54.90
50955;DHT22;36966;48.064;-0.792;2024-01-30T03:27:59;17.40;54.90
50955;DHT22;36966;48.064;-0.792;2024-01-30T03:30:18;17.30;54.90
50955;DHT22;36966;48.064;-0.792;2024-01-30T03:32:39;17.40;55.00
50955;DHT22;36966;48.064;-0.792;2024-01-30T03:34:58;17.40;54.90
50955;DHT22;36966;48.064;-0.792;2024-01-30T03:37:18;17.30;55.00
50955;DHT22;36966;48.064;-0.792;2024-01-30T03:39:37;17.30;55.00
50955;DHT22;36966;48.064;-0.792;2024-01-30T03:41:56;17.30;55.10
50955;DHT22;36966;48.064;-0.792;2024-01-30T03:44:16;17.30;55.00
50955;DHT22;36966;48.064;-0.792;2024-01-30T03:46:35;17.30;55.00
50955;DHT22;36966;48.064;-0.792;2024-01-30T03:48:55;17.30;55.00
50955;DHT22;36966;48.064;-0.792;2024-01-30T03:51:14;17.30;55.00
50955;DHT22;36966;48.064;-0.792;2024-01-30T03:53:35;17.30;55.00
50955;DHT22;36966;48.064;-0.792;2024-01-30T03:55:54;17.30;54.90
50955;DHT22;36966;48.064;-0.792;2024-01-30T03:58:13;17.30;55.00
50955;DHT22;36966;48.064;-0.792;2024-01-30T04:00:32;17.40;55.00
50955;DHT22;36966;48.064;-0.792;2024-01-30T04:02:52;17.30;55.00
50955;DHT22;36966;48.064;-0.792;2024-01-30T04:05:11;17.30;55.00
50955;DHT22;36966;48.064;-0.792;2024-01-30T04:07:30;17.40;55.00
50955;DHT22;36966;48.064;-0.792;2024-01-30T04:09:50;17.30;55.10
50955;DHT22;36966;48.064;-0.792;2024-01-30T04:12:09;17.40;55.00
50955;DHT22;36966;48.064;-0.792;2024-01-30T04:14:28;17.30;55.00
50955;DHT22;36966;48.064;-0.792;2024-01-30T04:16:48;17.40;55.00
50955;DHT22;36966;48.064;-0.792;2024-01-30T04:19:07;17.30;55.00
50955;DHT22;36966;48.064;-0.792;2024-01-30T04:21:26;17.30;55.00
50955;DHT22;36966;48.064;-0.792;2024-01-30T04:23:45;17.30;55.00
50955;DHT22;36966;48.064;-0.792;2024-01-30T04:26:04;17.30;55.00
50955;DHT22;36966;48.064;-0.792;2024-01-30T04:28:24;17.30;55.00
50955;DHT22;36966;48.064;-0.792;2024-01-30T04:30:43;17.30;55.00
50955;DHT22;36966;48.064;-0.792;2024-01-30T04:33:02;17.30;55.00
50955;DHT22;36966;48.064;-0.792;2024-01-30T04:35:22;17.30;55.10
50955;DHT22;36966;48.064;-0.792;2024-01-30T04:37:43;17.30;55.10
50955;DHT22;36966;48.064;-0.792;2024-01-30T04:40:03;17.30;55.10
50955;DHT22;36966;48.064;-0.792;2024-01-30T04:42:22;17.30;55.10
50955;DHT22;36966;48.064;-0.792;2024-01-30T04:44:42;17.30;55.10
50955;DHT22;36966;48.064;-0.792;2024-01-30T04:47:01;17.30;55.20
50955;DHT22;36966;48.064;-0.792;2024-01-30T04:49:20;17.30;56.50
50955;DHT22;36966;48.064;-0.792;2024-01-30T04:51:39;17.20;55.90
50955;DHT22;36966;48.064;-0.792;2024-01-30T04:53:59;17.30;56.00
50955;DHT22;36966;48.064;-0.792;2024-01-30T04:56:18;17.20;55.90
50955;DHT22;36966;48.064;-0.792;2024-01-30T04:58:37;17.30;55.80
50955;DHT22;36966;48.064;-0.792;2024-01-30T05:00:57;17.30;55.70
50955;DHT22;36966;48.064;-0.792;2024-01-30T05:03:16;17.30;55.70
50955;DHT22;36966;48.064;-0.792;2024-01-30T05:05:36;17.30;55.60
50955;DHT22;36966;48.064;-0.792;2024-01-30T05:07:55;17.20;55.60
50955;DHT22;36966;48.064;-0.792;2024-01-30T05:10:15;17.30;55.60
50955;DHT22;36966;48.064;-0.792;2024-01-30T05:12:34;17.20;55.60
50955;DHT22;36966;48.064;-0.792;2024-01-30T05:14:53;17.20;55.50
50955;DHT22;36966;48.064;-0.792;2024-01-30T05:17:13;17.30;55.50
50955;DHT22;36966;48.064;-0.792;2024-01-30T05:19:32;17.20;55.50
50955;DHT22;36966;48.064;-0.792;2024-01-30T05:21:51;17.30;55.50
50955;DHT22;36966;48.064;-0.792;2024-01-30T05:24:11;17.30;55.50
50955;DHT22;36966;48.064;-0.792;2024-01-30T05:26:30;17.20;55.50
50955;DHT22;36966;48.064;-0.792;2024-01-30T05:28:49;17.20;55.50
50955;DHT22;36966;48.064;-0.792;2024-01-30T05:31:08;17.20;55.50
50955;DHT22;36966;48.064;-0.792;2024-01-30T05:33:28;17.20;55.50
50955;DHT22;36966;48.064;-0.792;2024-01-30T05:35:47;17.20;55.50
50955;DHT22;36966;48.064;-0.792;2024-01-30T05:38:07;17.20;55.50
50955;DHT22;36966;48.064;-0.792;2024-01-30T05:40:26;17.20;55.60
50955;DHT22;36966;48.064;-0.792;2024-01-30T05:42:46;17.20;55.50
50955;DHT22;36966;48.064;-0.792;2024-01-30T05:45:05;17.20;55.50
50955;DHT22;36966;48.064;-0.792;2024-01-30T05:47:24;17.20;55.50
50955;DHT22;36966;48.064;-0.792;2024-01-30T05:49:43;17.20;55.60
50955;DHT22;36966;48.064;-0.792;2024-01-30T05:52:03;17.20;55.50
50955;DHT22;36966;48.064;-0.792;2024-01-30T05:54:22;17.20;55.50
50955;DHT22;36966;48.064;-0.792;2024-01-30T05:56:41;17.30;55.50
50955;DHT22;36966;48.064;-0.792;2024-01-30T05:59:01;17.20;55.50
50955;DHT22;36966;48.064;-0.792;2024-01-30T06:01:20;17.20;55.50
50955;DHT22;36966;48.064;-0.792;2024-01-30T06:03:39;17.20;55.50
50955;DHT22;36966;48.064;-0.792;2024-01-30T06:05:59;17.20;55.50
50955;DHT22;36966;48.064;-0.792;2024-01-30T06:08:19;17.20;55.40
50955;DHT22;36966;48.064;-0.792;2024-01-30T06:10:38;17.20;55.50
50955;DHT22;36966;48.064;-0.792;2024-01-30T06:12:58;17.20;55.50
50955;DHT22;36966;48.064;-0.792;2024-01-30T06:15:17;17.20;55.50
50955;DHT22;36966;48.064;-0.792;2024-01-30T06:17:36;17.20;55.50
50955;DHT22;36966;48.064;-0.792;2024-01-30T06:19:56;17.20;55.60
50955;DHT22;36966;48.064;-0.792;2024-01-30T06:22:15;17.20;55.50
50955;DHT22;36966;48.064;-0.792;2024-01-30T06:24:35;17.20;55.50
50955;DHT22;36966;48.064;-0.792;2024-01-30T06:26:54;17.20;55.50
50955;DHT22;36966;48.064;-0.792;2024-01-30T06:29:13;17.20;55.50
50955;DHT22;36966;48.064;-0.792;2024-01-30T06:31:39;17.20;55.50
50955;DHT22;36966;48.064;-0.792;2024-01-30T06:33:58;17.20;55.40
50955;DHT22;36966;48.064;-0.792;2024-01-30T06:36:17;17.20;55.40
50955;DHT22;36966;48.064;-0.792;2024-01-30T06:38:36;17.20;55.50
50955;DHT22;36966;48.064;-0.792;2024-01-30T06:40:55;17.20;55.40
50955;DHT22;36966;48.064;-0.792;2024-01-30T06:43:15;17.20;55.40
50955;DHT22;36966;48.064;-0.792;2024-01-30T06:45:34;17.20;55.40
50955;DHT22;36966;48.064;-0.792;2024-01-30T06:47:53;17.20;55.30
50955;DHT22;36966;48.064;-0.792;2024-01-30T06:50:12;17.20;55.30
50955;DHT22;36966;48.064;-0.792;2024-01-30T06:52:32;17.20;55.30
50955;DHT22;36966;48.064;-0.792;2024-01-30T06:54:51;17.20;55.30
50955;DHT22;36966;48.064;-0.792;2024-01-30T06:57:10;17.20;55.20
50955;DHT22;36966;48.064;-0.792;2024-01-30T06:59:31;17.10;55.20
50955;DHT22;36966;48.064;-0.792;2024-01-30T07:01:50;17.20;55.20
50955;DHT22;36966;48.064;-0.792;2024-01-30T07:04:09;17.20;55.20
50955;DHT22;36966;48.064;-0.792;2024-01-30T07:06:28;17.20;55.20
50955;DHT22;36966;48.064;-0.792;2024-01-30T07:08:48;17.20;55.20
50955;DHT22;36966;48.064;-0.792;2024-01-30T07:11:08;17.20;55.10
50955;DHT22;36966;48.064;-0.792;2024-01-30T07:13:27;17.20;55.10
50955;DHT22;36966;48.064;-0.792;2024-01-30T07:15:47;17.10;55.10
50955;DHT22;36966;48.064;-0.792;2024-01-30T07:18:07;17.10;55.10
50955;DHT22;36966;48.064;-0.792;2024-01-30T07:20:26;17.20;55.10
50955;DHT22;36966;48.064;-0.792;2024-01-30T07:22:46;17.10;55.10
50955;DHT22;36966;48.064;-0.792;2024-01-30T07:25:05;17.10;55.10
50955;DHT22;36966;48.064;-0.792;2024-01-30T07:27:24;17.10;55.10
50955;DHT22;36966;48.064;-0.792;2024-01-30T07:29:44;17.10;55.10
50955;DHT22;36966;48.064;-0.792;2024-01-30T07:32:03;17.10;55.10
50955;DHT22;36966;48.064;-0.792;2024-01-30T07:34:22;17.10;55.00
50955;DHT22;36966;48.064;-0.792;2024-01-30T07:36:41;17.10;55.00
50955;DHT22;36966;48.064;-0.792;2024-01-30T07:39:00;17.10;55.00
50955;DHT22;36966;48.064;-0.792;2024-01-30T07:41:20;17.20;55.00
50955;DHT22;36966;48.064;-0.792;2024-01-30T07:43:39;17.10;55.00
50955;DHT22;36966;48.064;-0.792;2024-01-30T07:45:58;17.10;54.90
50955;DHT22;36966;48.064;-0.792;2024-01-30T07:48:18;17.10;55.00
50955;DHT22;36966;48.064;-0.792;2024-01-30T07:50:37;17.10;55.00
50955;DHT22;36966;48.064;-0.792;2024-01-30T07:52:58;17.20;55.00
50955;DHT22;36966;48.064;-0.792;2024-01-30T07:55:18;17.10;55.00
50955;DHT22;36966;48.064;-0.792;2024-01-30T07:57:38;17.10;55.00
50955;DHT22;36966;48.064;-0.792;2024-01-30T07:59:57;17.10;55.00
50955;DHT22;36966;48.064;-0.792;2024-01-30T08:02:18;17.10;55.00
50955;DHT22;36966;48.064;-0.792;2024-01-30T08:04:37;17.10;55.00
50955;DHT22;36966;48.064;-0.792;2024-01-30T08:06:56;17.10;55.00
50955;DHT22;36966;48.064;-0.792;2024-01-30T08:09:16;17.10;55.00
50955;DHT22;36966;48.064;-0.792;2024-01-30T08:11:35;17.10;55.00
50955;DHT22;36966;48.064;-0.792;2024-01-30T08:13:54;17.10;55.00
50955;DHT22;36966;48.064;-0.792;2024-01-30T08:16:13;17.10;55.00
50955;DHT22;36966;48.064;-0.792;2024-01-30T08:18:33;17.10;55.00
50955;DHT22;36966;48.064;-0.792;2024-01-30T08:20:52;17.10;55.00
50955;DHT22;36966;48.064;-0.792;2024-01-30T08:23:11;17.10;54.90
50955;DHT22;36966;48.064;-0.792;2024-01-30T08:25:31;17.10;54.80
50955;DHT22;36966;48.064;-0.792;2024-01-30T08:27:50;17.10;54.70
50955;DHT22;36966;48.064;-0.792;2024-01-30T08:30:09;17.10;54.70
50955;DHT22;36966;48.064;-0.792;2024-01-30T08:32:28;17.10;54.70
50955;DHT22;36966;48.064;-0.792;2024-01-30T08:34:48;17.20;54.60
50955;DHT22;36966;48.064;-0.792;2024-01-30T08:37:07;17.20;54.60
50955;DHT22;36966;48.064;-0.792;2024-01-30T08:39:26;17.10;54.60
50955;DHT22;36966;48.064;-0.792;2024-01-30T08:41:45;17.20;54.60
50955;DHT22;36966;48.064;-0.792;2024-01-30T08:44:05;17.20;54.60
50955;DHT22;36966;48.064;-0.792;2024-01-30T08:46:24;17.20;54.60
50955;DHT22;36966;48.064;-0.792;2024-01-30T08:48:43;17.20;54.60
50955;DHT22;36966;48.064;-0.792;2024-01-30T08:51:03;17.20;54.60
50955;DHT22;36966;48.064;-0.792;2024-01-30T08:53:22;17.20;54.50
50955;DHT22;36966;48.064;-0.792;2024-01-30T08:55:41;17.20;54.60
50955;DHT22;36966;48.064;-0.792;2024-01-30T08:58:00;17.20;54.50
50955;DHT22;36966;48.064;-0.792;2024-01-30T09:00:21;17.10;54.60
50955;DHT22;36966;48.064;-0.792;2024-01-30T09:02:40;17.20;54.50
50955;DHT22;36966;48.064;-0.792;2024-01-30T09:04:59;17.20;54.60
50955;DHT22;36966;48.064;-0.792;2024-01-30T09:07:18;17.20;54.50
50955;DHT22;36966;48.064;-0.792;2024-01-30T09:09:38;17.20;54.50
50955;DHT22;36966;48.064;-0.792;2024-01-30T09:11:58;17.20;54.50
50955;DHT22;36966;48.064;-0.792;2024-01-30T09:14:20;17.10;54.40
50955;DHT22;36966;48.064;-0.792;2024-01-30T09:16:40;17.20;60.40
50955;DHT22;36966;48.064;-0.792;2024-01-30T09:18:59;17.30;59.50
50955;DHT22;36966;48.064;-0.792;2024-01-30T09:21:18;17.30;57.70
50955;DHT22;36966;48.064;-0.792;2024-01-30T09:23:37;17.20;56.50
50955;DHT22;36966;48.064;-0.792;2024-01-30T09:25:57;17.20;56.00
50955;DHT22;36966;48.064;-0.792;2024-01-30T09:28:19;17.20;55.70
50955;DHT22;36966;48.064;-0.792;2024-01-30T09:30:38;17.20;55.50
50955;DHT22;36966;48.064;-0.792;2024-01-30T09:32:58;17.20;55.30
50955;DHT22;36966;48.064;-0.792;2024-01-30T09:35:17;17.20;55.20
50955;DHT22;36966;48.064;-0.792;2024-01-30T09:37:37;17.20;55.10
50955;DHT22;36966;48.064;-0.792;2024-01-30T09:39:56;17.20;55.00
50955;DHT22;36966;48.064;-0.792;2024-01-30T09:42:34;17.20;55.00
50955;DHT22;36966;48.064;-0.792;2024-01-30T09:44:56;17.20;54.90
50955;DHT22;36966;48.064;-0.792;2024-01-30T09:47:16;17.20;54.80
50955;DHT22;36966;48.064;-0.792;2024-01-30T09:49:35;17.30;54.60
50955;DHT22;36966;48.064;-0.792;2024-01-30T09:51:55;17.30;54.50
50955;DHT22;36966;48.064;-0.792;2024-01-30T09:54:14;17.30;54.50
50955;DHT22;36966;48.064;-0.792;2024-01-30T09:56:34;17.40;54.30
50955;DHT22;36966;48.064;-0.792;2024-01-30T09:58:53;17.40;54.50
50955;DHT22;36966;48.064;-0.792;2024-01-30T10:01:12;17.40;54.40
50955;DHT22;36966;48.064;-0.792;2024-01-30T10:03:32;17.50;54.40
50955;DHT22;36966;48.064;-0.792;2024-01-30T10:05:51;17.60;54.30
50955;DHT22;36966;48.064;-0.792;2024-01-30T10:08:14;17.60;54.30
50955;DHT22;36966;48.064;-0.792;2024-01-30T10:10:35;17.70;54.20
50955;DHT22;36966;48.064;-0.792;2024-01-30T10:12:55;17.80;54.10
50955;DHT22;36966;48.064;-0.792;2024-01-30T10:15:14;17.90;53.70
50955;DHT22;36966;48.064;-0.792;2024-01-30T10:17:33;18.00;53.50
50955;DHT22;36966;48.064;-0.792;2024-01-30T10:19:56;18.10;53.50
50955;DHT22;36966;48.064;-0.792;2024-01-30T10:22:15;18.20;53.40
50955;DHT22;36966;48.064;-0.792;2024-01-30T10:24:35;18.20;53.10
50955;DHT22;36966;48.064;-0.792;2024-01-30T10:26:55;18.30;53.10
50955;DHT22;36966;48.064;-0.792;2024-01-30T10:29:14;18.30;53.00
50955;DHT22;36966;48.064;-0.792;2024-01-30T10:31:33;18.40;52.90
50955;DHT22;36966;48.064;-0.792;2024-01-30T10:33:53;18.50;52.60
50955;DHT22;36966;48.064;-0.792;2024-01-30T10:36:13;18.60;52.50
50955;DHT22;36966;48.064;-0.792;2024-01-30T10:38:33;18.60;52.40
50955;DHT22;36966;48.064;-0.792;2024-01-30T10:40:52;18.70;52.20
50955;DHT22;36966;48.064;-0.792;2024-01-30T10:43:13;18.80;52.10
50955;DHT22;36966;48.064;-0.792;2024-01-30T10:45:34;18.80;51.60
50955;DHT22;36966;48.064;-0.792;2024-01-30T10:47:54;18.90;51.80
50955;DHT22;36966;48.064;-0.792;2024-01-30T10:50:16;19.00;51.60
50955;DHT22;36966;48.064;-0.792;2024-01-30T10:52:35;19.10;51.50
50955;DHT22;36966;48.064;-0.792;2024-01-30T10:54:55;19.10;51.30
50955;DHT22;36966;48.064;-0.792;2024-01-30T10:57:15;19.10;51.30
50955;DHT22;36966;48.064;-0.792;2024-01-30T10:59:34;19.20;51.10
50955;DHT22;36966;48.064;-0.792;2024-01-30T11:01:54;19.20;50.90
50955;DHT22;36966;48.064;-0.792;2024-01-30T11:04:13;19.30;50.70
50955;DHT22;36966;48.064;-0.792;2024-01-30T11:06:32;19.30;50.60
50955;DHT22;36966;48.064;-0.792;2024-01-30T11:09:02;19.40;50.80
50955;DHT22;36966;48.064;-0.792;2024-01-30T11:11:23;19.40;50.60
50955;DHT22;36966;48.064;-0.792;2024-01-30T11:13:42;19.50;50.50
50955;DHT22;36966;48.064;-0.792;2024-01-30T11:16:02;19.60;50.30
50955;DHT22;36966;48.064;-0.792;2024-01-30T11:18:25;19.60;50.30
50955;DHT22;36966;48.064;-0.792;2024-01-30T11:20:46;19.60;50.30
50955;DHT22;36966;48.064;-0.792;2024-01-30T11:23:05;19.70;50.30
50955;DHT22;36966;48.064;-0.792;2024-01-30T11:25:27;19.70;50.10
50955;DHT22;36966;48.064;-0.792;2024-01-30T11:27:49;19.70;50.00
50955;DHT22;36966;48.064;-0.792;2024-01-30T11:30:08;19.70;49.90
50955;DHT22;36966;48.064;-0.792;2024-01-30T11:32:28;19.80;49.90
50955;DHT22;36966;48.064;-0.792;2024-01-30T11:34:47;19.80;49.80
50955;DHT22;36966;48.064;-0.792;2024-01-30T11:37:09;19.80;49.50
50955;DHT22;36966;48.064;-0.792;2024-01-30T11:39:31;19.80;49.70
50955;DHT22;36966;48.064;-0.792;2024-01-30T11:41:51;19.80;49.50
50955;DHT22;36966;48.064;-0.792;2024-01-30T11:44:11;19.80;49.40
50955;DHT22;36966;48.064;-0.792;2024-01-30T11:46:31;19.90;49.40
50955;DHT22;36966;48.064;-0.792;2024-01-30T11:48:50;19.90;49.40
50955;DHT22;36966;48.064;-0.792;2024-01-30T11:51:10;19.90;49.20
50955;DHT22;36966;48.064;-0.792;2024-01-30T11:53:30;19.80;49.50
50955;DHT22;36966;48.064;-0.792;2024-01-30T11:55:50;19.80;49.60
50955;DHT22;36966;48.064;-0.792;2024-01-30T11:58:10;19.80;49.30
50955;DHT22;36966;48.064;-0.792;2024-01-30T12:00:29;19.80;49.50
50955;DHT22;36966;48.064;-0.792;2024-01-30T12:02:53;19.80;49.40
50955;DHT22;36966;48.064;-0.792;2024-01-30T12:05:15;19.80;49.40
50955;DHT22;36966;48.064;-0.792;2024-01-30T12:07:35;19.80;49.50
50955;DHT22;36966;48.064;-0.792;2024-01-30T12:09:54;19.80;48.90
50955;DHT22;36966;48.064;-0.792;2024-01-30T12:12:13;19.80;49.50
50955;DHT22;36966;48.064;-0.792;2024-01-30T12:14:33;19.80;49.50
50955;DHT22;36966;48.064;-0.792;2024-01-30T12:16:52;19.90;49.20
50955;DHT22;36966;48.064;-0.792;2024-01-30T12:19:20;19.90;49.20
50955;DHT22;36966;48.064;-0.792;2024-01-30T12:21:39;19.90;49.00
50955;DHT22;36966;48.064;-0.792;2024-01-30T12:23:59;20.00;49.20
50955;DHT22;36966;48.064;-0.792;2024-01-30T12:26:18;19.90;48.90
50955;DHT22;36966;48.064;-0.792;2024-01-30T12:28:46;20.00;48.80
50955;DHT22;36966;48.064;-0.792;2024-01-30T12:31:06;20.00;48.70
50955;DHT22;36966;48.064;-0.792;2024-01-30T12:33:26;19.90;48.90
50955;DHT22;36966;48.064;-0.792;2024-01-30T12:35:46;20.00;49.10
50955;DHT22;36966;48.064;-0.792;2024-01-30T12:38:06;20.00;49.00
50955;DHT22;36966;48.064;-0.792;2024-01-30T12:40:25;19.90;48.90
50955;DHT22;36966;48.064;-0.792;2024-01-30T12:42:48;19.90;48.80
50955;DHT22;36966;48.064;-0.792;2024-01-30T12:45:11;20.00;48.90
50955;DHT22;36966;48.064;-0.792;2024-01-30T12:47:30;19.90;48.70
50955;DHT22;36966;48.064;-0.792;2024-01-30T12:49:50;20.00;48.70
50955;DHT22;36966;48.064;-0.792;2024-01-30T12:52:13;20.00;48.60
50955;DHT22;36966;48.064;-0.792;2024-01-30T12:54:32;20.00;48.90
50955;DHT22;36966;48.064;-0.792;2024-01-30T12:56:52;19.90;48.40
50955;DHT22;36966;48.064;-0.792;2024-01-30T12:59:11;20.00;48.20
50955;DHT22;36966;48.064;-0.792;2024-01-30T13:01:30;19.90;48.30
50955;DHT22;36966;48.064;-0.792;2024-01-30T13:03:50;19.90;48.40
50955;DHT22;36966;48.064;-0.792;2024-01-30T13:06:09;19.90;48.10
50955;DHT22;36966;48.064;-0.792;2024-01-30T13:08:28;19.80;47.70
50955;DHT22;36966;48.064;-0.792;2024-01-30T13:10:47;19.80;48.10
50955;DHT22;36966;48.064;-0.792;2024-01-30T13:13:06;19.80;48.40
50955;DHT22;36966;48.064;-0.792;2024-01-30T13:15:26;19.70;48.40
50955;DHT22;36966;48.064;-0.792;2024-01-30T13:17:45;19.70;48.70
50955;DHT22;36966;48.064;-0.792;2024-01-30T13:20:07;19.70;48.60
50955;DHT22;36966;48.064;-0.792;2024-01-30T13:22:27;19.60;48.90
50955;DHT22;36966;48.064;-0.792;2024-01-30T13:24:46;19.50;48.80
50955;DHT22;36966;48.064;-0.792;2024-01-30T13:27:05;19.50;49.10
50955;DHT22;36966;48.064;-0.792;2024-01-30T13:29:25;19.30;49.00
50955;DHT22;36966;48.064;-0.792;2024-01-30T13:31:45;19.30;49.30
50955;DHT22;36966;48.064;-0.792;2024-01-30T13:34:06;19.20;49.20
50955;DHT22;36966;48.064;-0.792;2024-01-30T13:36:26;19.20;49.50
50955;DHT22;36966;48.064;-0.792;2024-01-30T13:38:45;19.20;49.50
50955;DHT22;36966;48.064;-0.792;2024-01-30T13:41:04;19.10;49.40
50955;DHT22;36966;48.064;-0.792;2024-01-30T13:43:23;19.10;49.50
50955;DHT22;36966;48.064;-0.792;2024-01-30T13:45:43;19.10;49.40
50955;DHT22;36966;48.064;-0.792;2024-01-30T13:48:02;19.10;49.40
50955;DHT22;36966;48.064;-0.792;2024-01-30T13:50:22;19.10;49.40
50955;DHT22;36966;48.064;-0.792;2024-01-30T13:52:41;19.10;49.50
50955;DHT22;36966;48.064;-0.792;2024-01-30T13:55:00;19.00;49.20
50955;DHT22;36966;48.064;-0.792;2024-01-30T13:57:19;19.00;49.10
50955;DHT22;36966;48.064;-0.792;2024-01-30T13:59:39;19.00;49.00
50955;DHT22;36966;48.064;-0.792;2024-01-30T14:01:58;19.00;49.10
50955;DHT22;36966;48.064;-0.792;2024-01-30T14:04:17;19.00;48.90
50955;DHT22;36966;48.064;-0.792;2024-01-30T14:06:37;18.90;48.70
50955;DHT22;36966;48.064;-0.792;2024-01-30T14:08:56;18.90;48.80
50955;DHT22;36966;48.064;-0.792;2024-01-30T14:11:17;18.90;48.40
50955;DHT22;36966;48.064;-0.792;2024-01-30T14:13:36;18.90;48.60
50955;DHT22;36966;48.064;-0.792;2024-01-30T14:15:55;18.90;48.70
50955;DHT22;36966;48.064;-0.792;2024-01-30T14:18:15;18.90;48.70
50955;DHT22;36966;48.064;-0.792;2024-01-30T14:20:34;18.90;49.10
50955;DHT22;36966;48.064;-0.792;2024-01-30T14:22:53;18.90;49.10
50955;DHT22;36966;48.064;-0.792;2024-01-30T14:25:14;18.80;49.50
50955;DHT22;36966;48.064;-0.792;2024-01-30T14:27:34;18.80;49.70